Terminal Aerodrome Forecast
Issued by NWS

Home | Current Version | Previous Version | Text Only | Print | Product List | Glossary On
Versions: 1 2 3 4 5 6 7 8 9 10 11 12 13
000
FTUS42 KMLB 251126
TAFLEE
TAF
KLEE 251126Z 2512/2612 VRB04KT P6SM SCT250
     FM251400 17008KT P6SM SCT035
     FM251600 20010KT P6SM VCSH BKN035
     FM251800 27010G17KT P6SM VCTS SCT035CB BKN060
     FM252300 24008KT P6SM SCT060 BKN200=

USA.gov is the U.S. government's official web portal to all federal, state and local government web resources and services.